Ridgetown, Canada
Current Conditions -  °F | °C
As of 11:00 AM on Sunday 25 Jan 2015 (Local Time) from CYCK Reporting Station
Overcast Overcast  
Wind Chill: -15°   Ceiling: 4600
Heat Index: -7°   Visibility: 9mi
Dew Point: -10°   Wind: 17mph
Humidity: 80%   Direction: 50°NE
Pressure: 29.9"   Gusts: NA
Location:  42.43°N, 81.88°W
Report Text: CYCK 251600Z AUTO 05015KT 9SM OVC046 M07/M10 A2990 RMK SLP134
Loading
Personal Weather Stations






























Interactive Weather Map New forecast layout! Learn more

10-Day Weather Forecast

Advertisements
Track Severe Weather on mobile